createdAt,value
2022-08-19T00:00:51.193Z,1.10
2022-08-19T00:03:17.556Z,1.57
2022-08-19T00:05:43.863Z,1.20
2022-08-19T00:08:10.321Z,1.10
2022-08-19T00:10:36.648Z,1.10
2022-08-19T00:13:03.204Z,1.10
2022-08-19T00:15:29.579Z,1.10
2022-08-19T00:17:55.973Z,1.10
2022-08-19T00:20:22.625Z,1.20
2022-08-19T00:22:49.346Z,1.10
2022-08-19T00:25:16.044Z,1.10
2022-08-19T00:27:42.659Z,1.10
2022-08-19T00:30:10.323Z,1.10
2022-08-19T00:32:37.391Z,1.10
2022-08-19T00:35:04.683Z,1.10
2022-08-19T00:37:30.965Z,1.10
2022-08-19T00:39:57.289Z,1.10
2022-08-19T00:42:24.190Z,1.20
2022-08-19T00:44:51.578Z,1.10
2022-08-19T00:47:17.939Z,1.10
2022-08-19T00:49:51.450Z,1.17
2022-08-19T00:52:20.587Z,1.10
2022-08-19T00:54:52.338Z,1.10
2022-08-19T00:57:23.099Z,1.10
2022-08-19T00:59:56.468Z,1.10
2022-08-19T01:02:29.610Z,1.10
2022-08-19T01:04:56.583Z,1.17
2022-08-19T01:07:23.119Z,1.10
2022-08-19T01:09:50.286Z,1.10
2022-08-19T01:12:17.706Z,1.20
2022-08-19T01:14:44.319Z,1.17
2022-08-19T01:17:12.166Z,1.10
2022-08-19T01:19:44.343Z,1.20
2022-08-19T01:22:33.502Z,1.20
2022-08-19T01:25:00.336Z,1.20
2022-08-19T01:27:26.687Z,1.20
2022-08-19T01:29:56.203Z,1.20
2022-08-19T01:32:34.013Z,1.20
2022-08-19T01:35:03.275Z,1.20
2022-08-19T01:37:31.223Z,1.20
2022-08-19T01:39:57.693Z,1.20
2022-08-19T01:42:30.055Z,1.20
2022-08-19T01:44:57.193Z,1.20
2022-08-19T01:47:23.571Z,1.20
2022-08-19T01:49:49.838Z,1.20
2022-08-19T01:52:16.167Z,1.20
2022-08-19T01:54:42.436Z,1.20
2022-08-19T01:57:09.994Z,1.20
2022-08-19T01:59:37.392Z,1.13
2022-08-19T02:02:08.031Z,1.10
2022-08-19T02:04:35.087Z,1.20
2022-08-19T02:07:01.821Z,1.20
2022-08-19T02:09:28.157Z,1.20
2022-08-19T02:11:54.431Z,1.20
2022-08-19T02:14:20.721Z,1.20
2022-08-19T02:16:46.995Z,1.20
2022-08-19T02:19:13.856Z,1.20
2022-08-19T02:21:40.126Z,1.20
2022-08-19T02:24:06.549Z,1.20
2022-08-19T02:26:33.421Z,1.20
2022-08-19T02:28:59.694Z,1.20
2022-08-19T02:31:28.796Z,1.20
2022-08-19T02:33:56.595Z,1.20
2022-08-19T02:36:23.810Z,1.30
2022-08-19T02:38:55.049Z,1.30
2022-08-19T02:41:29.863Z,1.30
2022-08-19T02:44:26.327Z,1.30
2022-08-19T02:46:45.774Z,1.30
2022-08-19T02:49:12.135Z,1.30
2022-08-19T02:51:42.473Z,1.30
2022-08-19T02:54:09.914Z,1.30
2022-08-19T02:56:37.330Z,1.30
2022-08-19T02:59:08.506Z,1.30
2022-08-19T03:01:36.836Z,1.30
2022-08-19T03:04:05.395Z,1.30
2022-08-19T03:06:32.342Z,1.20
2022-08-19T03:08:58.976Z,1.30
2022-08-19T03:11:30.303Z,1.27
2022-08-19T03:13:56.629Z,1.30
2022-08-19T03:16:23.639Z,1.30
2022-08-19T03:18:50.916Z,1.30
2022-08-19T03:21:21.908Z,1.30
2022-08-19T03:23:48.392Z,1.30
2022-08-19T03:26:17.105Z,1.30
2022-08-19T03:28:51.817Z,1.30
2022-08-19T03:31:44.681Z,1.27
2022-08-19T03:34:18.499Z,1.30
2022-08-19T03:36:45.513Z,1.30
2022-08-19T03:39:11.922Z,1.40
2022-08-19T03:41:45.792Z,1.30
2022-08-19T03:44:17.846Z,1.30
2022-08-19T03:46:45.293Z,1.20
2022-08-19T03:49:11.773Z,1.30
2022-08-19T03:51:41.412Z,1.30
2022-08-19T03:54:10.878Z,1.27
2022-08-19T03:56:38.524Z,1.30
2022-08-19T03:59:06.199Z,3.00
2022-08-19T04:01:35.470Z,1.30
2022-08-19T04:04:02.180Z,1.30
2022-08-19T04:06:31.176Z,1.30
2022-08-19T04:08:59.243Z,1.23
2022-08-19T04:11:43.065Z,1.30
2022-08-19T04:14:15.568Z,1.30
2022-08-19T04:16:42.995Z,1.30
2022-08-19T04:19:09.348Z,1.30
2022-08-19T04:21:35.703Z,1.47
2022-08-19T04:24:02.149Z,1.40
2022-08-19T04:26:33.043Z,1.30
2022-08-19T04:29:00.114Z,1.40
2022-08-19T04:31:29.155Z,1.40
2022-08-19T04:33:57.755Z,1.40
2022-08-19T04:36:26.252Z,1.30
2022-08-19T04:38:55.592Z,1.30
2022-08-19T04:41:40.488Z,1.30
2022-08-19T04:44:06.817Z,1.40
2022-08-19T04:46:39.527Z,1.40
2022-08-19T04:49:13.312Z,1.40
2022-08-19T04:51:41.271Z,1.40
2022-08-19T04:54:07.626Z,1.40
2022-08-19T04:56:34.196Z,1.40
2022-08-19T04:59:04.259Z,1.40
2022-08-19T05:01:31.195Z,1.30
2022-08-19T05:03:58.334Z,1.30
2022-08-19T05:06:26.297Z,1.40
2022-08-19T05:08:52.657Z,1.40
2022-08-19T05:11:26.690Z,1.30
2022-08-19T05:13:53.416Z,1.50
2022-08-19T05:16:20.860Z,1.40
2022-08-19T05:19:06.321Z,1.30
2022-08-19T05:21:51.103Z,1.40
2022-08-19T05:24:19.703Z,1.40
2022-08-19T05:26:47.454Z,1.40
2022-08-19T05:29:15.029Z,1.30
2022-08-19T05:31:41.885Z,1.37
2022-08-19T05:34:18.285Z,1.80
2022-08-19T05:36:46.634Z,1.37
2022-08-19T05:39:16.955Z,1.30
2022-08-19T05:41:43.717Z,1.30
2022-08-19T05:44:10.605Z,1.30
2022-08-19T05:46:38.343Z,1.40
2022-08-19T05:49:06.563Z,1.30
2022-08-19T05:51:34.036Z,1.33
2022-08-19T05:54:00.973Z,2.90
2022-08-19T05:56:27.749Z,1.30
2022-08-19T05:58:55.073Z,1.40
2022-08-19T06:01:21.583Z,1.30
2022-08-19T06:03:48.563Z,1.40
2022-08-19T06:06:16.009Z,1.40
2022-08-19T06:08:43.820Z,2.00
2022-08-19T06:11:14.266Z,1.40
2022-08-19T06:13:40.583Z,1.40
2022-08-19T06:16:06.869Z,2.53
2022-08-19T06:18:34.227Z,1.47
2022-08-19T06:21:01.221Z,1.40
2022-08-19T06:23:27.496Z,1.40
2022-08-19T06:25:53.756Z,1.70
2022-08-19T06:28:20.355Z,1.40
2022-08-19T06:30:46.763Z,1.30
2022-08-19T06:33:13.190Z,1.50
2022-08-19T06:35:40.445Z,1.40
2022-08-19T06:38:06.764Z,1.40
2022-08-19T06:40:33.113Z,1.40
2022-08-19T06:43:01.274Z,1.40
2022-08-19T06:45:35.456Z,1.40
2022-08-19T06:48:02.377Z,1.77
2022-08-19T06:50:29.694Z,1.50
2022-08-19T06:52:56.206Z,1.40
2022-08-19T06:55:22.665Z,1.53
2022-08-19T06:57:49.197Z,1.50
2022-08-19T07:00:15.953Z,1.50
2022-08-19T07:02:48.063Z,1.40
2022-08-19T07:05:22.607Z,1.40
2022-08-19T07:07:48.885Z,1.40
2022-08-19T07:10:17.453Z,1.30
2022-08-19T07:12:43.949Z,1.40
2022-08-19T07:15:11.764Z,1.30
2022-08-19T07:17:40.069Z,1.20
2022-08-19T07:20:09.603Z,1.40
2022-08-19T07:22:37.071Z,1.30
2022-08-19T07:25:04.648Z,1.20
2022-08-19T07:27:30.938Z,1.20
2022-08-19T07:30:00.043Z,1.20
2022-08-19T07:32:29.289Z,1.20
2022-08-19T07:34:56.490Z,1.20
2022-08-19T07:37:23.395Z,1.13
2022-08-19T07:39:49.817Z,1.10
2022-08-19T07:42:16.164Z,1.10
2022-08-19T07:44:43.222Z,1.10
2022-08-19T07:47:47.447Z,1.10
2022-08-19T07:50:05.591Z,1.10
2022-08-19T07:52:34.219Z,1.00
2022-08-19T07:55:04.488Z,1.00
2022-08-19T07:57:30.935Z,1.10
2022-08-19T07:59:57.394Z,2.03
2022-08-19T08:02:23.669Z,1.50
2022-08-19T08:05:08.666Z,1.00
2022-08-19T08:07:53.403Z,1.00
2022-08-19T08:10:20.511Z,1.00
2022-08-19T08:12:52.614Z,1.00
2022-08-19T08:15:37.570Z,1.00
2022-08-19T08:18:08.442Z,1.00
2022-08-19T08:20:35.837Z,0.90
2022-08-19T08:23:20.718Z,0.90
2022-08-19T08:25:49.385Z,1.03
2022-08-19T08:28:17.446Z,0.90
2022-08-19T08:30:46.555Z,1.10
2022-08-19T08:33:13.163Z,0.90
2022-08-19T08:35:42.686Z,1.00
2022-08-19T08:38:09.051Z,1.10
2022-08-19T08:40:39.804Z,1.77
2022-08-19T08:43:10.998Z,0.90
2022-08-19T08:45:42.687Z,0.97
2022-08-19T08:48:24.089Z,0.80
2022-08-19T08:50:53.538Z,0.80
2022-08-19T08:53:29.763Z,1.23
2022-08-19T08:56:01.181Z,1.20
2022-08-19T08:58:32.591Z,1.10
2022-08-19T09:00:58.887Z,1.30
2022-08-19T09:03:27.105Z,0.80
2022-08-19T09:05:58.066Z,0.80
2022-08-19T09:08:27.515Z,1.20
2022-08-19T09:10:56.041Z,0.80
2022-08-19T09:13:37.228Z,1.10
2022-08-19T09:16:13.122Z,0.80
2022-08-19T09:18:43.970Z,2.17
2022-08-19T09:21:10.312Z,1.10
2022-08-19T09:23:37.737Z,0.80
2022-08-19T09:26:08.185Z,0.90
2022-08-19T09:28:37.909Z,1.00
2022-08-19T09:31:05.466Z,0.70
2022-08-19T09:33:32.146Z,0.80
2022-08-19T09:36:09.767Z,0.70
2022-08-19T09:38:37.200Z,1.67
2022-08-19T09:41:14.511Z,0.60
2022-08-19T09:43:44.291Z,1.50
2022-08-19T09:46:16.833Z,0.70
2022-08-19T09:48:45.497Z,1.93
2022-08-19T09:51:15.987Z,0.60
2022-08-19T09:53:43.123Z,0.60
2022-08-19T09:56:09.492Z,0.60
2022-08-19T09:58:36.603Z,0.60
2022-08-19T10:01:03.849Z,5.20
2022-08-19T10:03:30.658Z,0.70
2022-08-19T10:05:58.616Z,0.50
2022-08-19T10:08:50.055Z,0.60
2022-08-19T10:11:27.782Z,0.50
2022-08-19T10:13:58.635Z,0.60
2022-08-19T10:16:30.188Z,0.50
2022-08-19T10:18:58.995Z,0.50
2022-08-19T10:21:27.048Z,0.50
2022-08-19T10:23:55.592Z,0.50
2022-08-19T10:26:26.791Z,0.50
2022-08-19T10:28:53.467Z,0.40
2022-08-19T10:31:22.322Z,0.40
2022-08-19T10:34:10.121Z,0.50
2022-08-19T10:36:39.795Z,0.43
2022-08-19T10:39:22.891Z,1.40
2022-08-19T10:41:49.967Z,0.40
2022-08-19T10:44:17.926Z,0.40
2022-08-19T10:46:48.756Z,0.40
2022-08-19T10:49:15.446Z,0.40
2022-08-19T10:52:02.521Z,0.40
2022-08-19T10:54:49.257Z,0.50
2022-08-19T10:57:16.337Z,0.67
2022-08-19T10:59:42.623Z,0.30
2022-08-19T11:02:13.852Z,0.40
2022-08-19T11:04:40.599Z,1.00
2022-08-19T11:07:08.513Z,0.40
2022-08-19T11:09:39.887Z,0.30
2022-08-19T11:12:06.458Z,0.30
2022-08-19T11:14:34.019Z,0.30
2022-08-19T11:17:01.029Z,0.30
2022-08-19T11:19:27.396Z,0.30
2022-08-19T11:21:55.500Z,0.63
2022-08-19T11:24:24.968Z,0.30
2022-08-19T11:26:52.504Z,0.40
2022-08-19T11:29:20.674Z,0.30
2022-08-19T11:31:48.261Z,0.30
2022-08-19T11:34:17.193Z,0.30
2022-08-19T11:36:45.722Z,0.30
2022-08-19T11:39:13.596Z,0.53
2022-08-19T11:41:40.360Z,0.30
2022-08-19T11:44:08.621Z,0.20
2022-08-19T11:46:35.615Z,1.20
2022-08-19T11:49:05.426Z,0.40
2022-08-19T11:51:31.812Z,0.10
2022-08-19T11:53:59.352Z,0.10
2022-08-19T11:56:26.548Z,0.10
2022-08-19T11:58:53.691Z,0.00
2022-08-19T12:01:21.283Z,0.00
2022-08-19T12:03:48.824Z,3.80
2022-08-19T12:06:16.884Z,0.00
2022-08-19T12:08:43.988Z,0.10
2022-08-19T12:11:11.119Z,0.00
2022-08-19T12:13:38.131Z,0.00
2022-08-19T12:16:13.161Z,0.00
2022-08-19T12:18:42.554Z,0.00
2022-08-19T12:21:10.979Z,0.93
2022-08-19T12:23:38.299Z,0.00
2022-08-19T12:26:04.901Z,0.15
2022-08-19T12:28:31.366Z,0.00
2022-08-19T12:30:58.102Z,0.00
2022-08-19T12:33:27.040Z,0.00
2022-08-19T12:35:53.350Z,0.00
2022-08-19T12:38:19.905Z,0.00
2022-08-19T12:40:47.778Z,0.00
2022-08-19T12:43:14.763Z,0.05
2022-08-19T12:45:41.071Z,0.00
2022-08-19T12:48:32.826Z,0.00
2022-08-19T12:50:55.209Z,0.00
2022-08-19T12:53:21.564Z,0.05
2022-08-19T12:55:47.824Z,0.00
2022-08-19T12:58:14.108Z,0.75
2022-08-19T13:00:40.491Z,0.00
2022-08-19T13:03:06.861Z,0.00
2022-08-19T13:05:36.524Z,0.00
2022-08-19T13:08:03.006Z,0.05
2022-08-19T13:10:35.577Z,0.00
2022-08-19T13:13:03.095Z,0.00
2022-08-19T13:15:32.085Z,0.45
2022-08-19T13:17:58.445Z,0.00
2022-08-19T13:20:25.469Z,0.00
2022-08-19T13:22:52.429Z,0.00
2022-08-19T13:25:20.411Z,0.00
2022-08-19T13:27:47.137Z,0.00
2022-08-19T13:30:33.234Z,0.00
2022-08-19T13:33:17.709Z,0.00
2022-08-19T13:35:46.757Z,0.00
2022-08-19T13:38:13.937Z,2.17
2022-08-19T13:40:41.273Z,0.35
2022-08-19T13:43:22.593Z,0.00
2022-08-19T13:45:50.245Z,0.00
2022-08-19T13:48:17.422Z,0.00
2022-08-19T13:50:45.107Z,0.00
2022-08-19T13:53:12.497Z,0.00
2022-08-19T13:55:39.431Z,0.13
2022-08-19T13:58:05.842Z,0.25
2022-08-19T14:00:34.132Z,0.00
2022-08-19T14:03:00.525Z,0.00
2022-08-19T14:05:28.397Z,0.00
2022-08-19T14:07:55.264Z,0.00
2022-08-19T14:10:22.384Z,0.00
2022-08-19T14:12:48.720Z,0.00
2022-08-19T14:15:15.547Z,0.00
2022-08-19T14:17:42.918Z,1.13
2022-08-19T14:20:11.269Z,0.00
2022-08-19T14:22:44.585Z,0.00
2022-08-19T14:25:14.621Z,0.03
2022-08-19T14:27:41.762Z,0.00
2022-08-19T14:30:09.324Z,0.25
2022-08-19T14:32:35.722Z,0.00
2022-08-19T14:35:02.534Z,0.00
2022-08-19T14:37:28.865Z,0.10
2022-08-19T14:39:55.222Z,0.08
2022-08-19T14:42:21.547Z,0.30
2022-08-19T14:44:47.824Z,0.00
2022-08-19T14:47:14.156Z,0.00
2022-08-19T14:49:44.784Z,0.30
2022-08-19T14:52:14.774Z,0.10
2022-08-19T14:54:41.043Z,0.00
2022-08-19T14:57:07.344Z,0.00
2022-08-19T14:59:35.319Z,0.03
2022-08-19T15:02:34.128Z,0.00
2022-08-19T15:04:47.868Z,0.10
2022-08-19T15:07:28.859Z,2.85
2022-08-19T15:09:55.880Z,0.10
2022-08-19T15:12:23.443Z,1.98
2022-08-19T15:14:56.108Z,0.00
2022-08-19T15:17:43.748Z,0.00
2022-08-19T15:20:10.872Z,0.00
2022-08-19T15:22:37.192Z,0.00
2022-08-19T15:25:04.814Z,0.00
2022-08-19T15:27:31.127Z,0.00
2022-08-19T15:30:01.471Z,0.00
2022-08-19T15:32:28.887Z,0.70
2022-08-19T15:34:55.419Z,0.35
2022-08-19T15:37:25.209Z,0.00
2022-08-19T15:39:51.749Z,0.00
2022-08-19T15:42:28.136Z,0.00
2022-08-19T15:44:56.822Z,0.00
2022-08-19T15:47:28.736Z,0.00
2022-08-19T15:50:01.281Z,0.00
2022-08-19T15:52:27.541Z,0.10
2022-08-19T15:54:53.811Z,0.00
2022-08-19T15:57:23.006Z,0.03
2022-08-19T16:00:08.131Z,0.00
2022-08-19T16:02:54.905Z,2.80
2022-08-19T16:05:41.250Z,0.00
2022-08-19T16:08:09.090Z,0.03
2022-08-19T16:10:35.934Z,0.10
2022-08-19T16:13:02.521Z,0.00
2022-08-19T16:15:30.599Z,0.00
2022-08-19T16:17:57.952Z,0.00
2022-08-19T16:20:26.311Z,0.00
2022-08-19T16:22:53.595Z,0.00
2022-08-19T16:25:19.930Z,0.00
2022-08-19T16:28:06.496Z,0.20
2022-08-19T16:30:32.496Z,0.10
2022-08-19T16:32:58.812Z,0.00
2022-08-19T16:35:25.069Z,0.07
2022-08-19T16:37:51.355Z,0.00
2022-08-19T16:40:17.730Z,0.00
2022-08-19T16:42:44.098Z,0.00
2022-08-19T16:45:10.390Z,0.00
2022-08-19T16:47:36.668Z,0.00
2022-08-19T16:50:04.922Z,0.00
2022-08-19T16:52:31.675Z,0.00
2022-08-19T16:54:58.151Z,0.10
2022-08-19T16:57:24.483Z,0.00
2022-08-19T16:59:52.290Z,0.00
2022-08-19T17:02:19.747Z,0.00
2022-08-19T17:04:57.097Z,0.00
2022-08-19T17:07:24.958Z,0.00
2022-08-19T17:09:51.439Z,0.00
2022-08-19T17:12:17.715Z,0.00
2022-08-19T17:14:45.879Z,0.00
2022-08-19T17:17:12.737Z,0.00
2022-08-19T17:19:41.753Z,0.00
2022-08-19T17:22:08.534Z,0.00
2022-08-19T17:24:37.941Z,0.00
2022-08-19T17:27:07.213Z,0.00
2022-08-19T17:29:33.811Z,0.10
2022-08-19T17:32:00.091Z,0.00
2022-08-19T17:34:26.416Z,0.00
2022-08-19T17:36:53.353Z,0.60
2022-08-19T17:39:19.719Z,0.10
2022-08-19T17:41:46.079Z,0.10
2022-08-19T17:44:12.961Z,0.10
2022-08-19T17:46:39.300Z,0.10
2022-08-19T17:49:06.674Z,0.10
2022-08-19T17:51:32.932Z,0.10
2022-08-19T17:53:59.862Z,0.10
2022-08-19T17:56:28.600Z,0.10
2022-08-19T17:58:59.993Z,0.10
2022-08-19T18:01:30.746Z,0.10
2022-08-19T18:04:14.628Z,0.10
2022-08-19T18:06:41.649Z,0.20
2022-08-19T18:09:12.999Z,0.20
2022-08-19T18:11:39.719Z,0.20
2022-08-19T18:14:06.059Z,0.10
2022-08-19T18:16:32.479Z,0.20
2022-08-19T18:18:58.798Z,0.13
2022-08-19T18:21:30.841Z,0.20
2022-08-19T18:24:01.869Z,0.20
2022-08-19T18:26:29.973Z,0.20
2022-08-19T18:28:57.094Z,0.20
2022-08-19T18:31:23.449Z,0.20
2022-08-19T18:33:52.423Z,0.20
2022-08-19T18:36:37.376Z,0.30
2022-08-19T18:39:24.442Z,0.20
2022-08-19T18:42:09.586Z,0.30
2022-08-19T18:44:59.601Z,0.20
2022-08-19T18:47:44.823Z,0.30
2022-08-19T18:50:12.949Z,0.30
2022-08-19T18:52:40.468Z,0.30
2022-08-19T18:55:07.506Z,0.30
2022-08-19T18:57:33.825Z,0.30
2022-08-19T19:00:00.354Z,0.30
2022-08-19T19:02:27.628Z,0.30
2022-08-19T19:04:55.964Z,0.30
2022-08-19T19:07:22.229Z,0.30
2022-08-19T19:09:51.775Z,0.30
2022-08-19T19:12:18.291Z,0.30
2022-08-19T19:14:49.392Z,0.30
2022-08-19T19:17:16.177Z,0.30
2022-08-19T19:19:42.910Z,0.30
2022-08-19T19:22:13.837Z,0.30
2022-08-19T19:24:44.073Z,0.30
2022-08-19T19:27:12.479Z,0.30
2022-08-19T19:29:39.276Z,0.30
2022-08-19T19:32:07.155Z,0.30
2022-08-19T19:34:33.675Z,0.30
2022-08-19T19:37:00.021Z,0.30
2022-08-19T19:39:30.659Z,0.40
2022-08-19T19:42:20.120Z,0.40
2022-08-19T19:44:48.825Z,0.30
2022-08-19T19:47:16.091Z,0.30
2022-08-19T19:50:03.884Z,0.30
2022-08-19T19:52:28.830Z,0.30
2022-08-19T19:54:56.715Z,0.40
2022-08-19T19:57:26.828Z,0.30
2022-08-19T19:59:54.240Z,0.30
2022-08-19T20:02:22.135Z,0.30
2022-08-19T20:04:48.823Z,0.30
2022-08-19T20:07:15.170Z,0.30
2022-08-19T20:09:58.887Z,0.40
2022-08-19T20:12:26.170Z,0.40
2022-08-19T20:14:52.511Z,0.40
2022-08-19T20:17:20.289Z,0.40
2022-08-19T20:19:47.682Z,0.33
2022-08-19T20:22:14.208Z,0.30
2022-08-19T20:24:42.322Z,0.40
2022-08-19T20:27:08.990Z,0.40
2022-08-19T20:29:38.448Z,0.40
2022-08-19T20:32:06.692Z,0.43
2022-08-19T20:34:33.784Z,0.40
2022-08-19T20:37:00.082Z,0.53
2022-08-19T20:39:26.449Z,0.40
2022-08-19T20:41:52.812Z,0.50
2022-08-19T20:44:19.841Z,0.50
2022-08-19T20:46:55.466Z,0.50
2022-08-19T20:49:23.037Z,0.50
2022-08-19T20:51:54.316Z,0.50
2022-08-19T20:54:20.629Z,0.60
2022-08-19T20:56:46.882Z,0.50
2022-08-19T20:59:13.171Z,0.60
2022-08-19T21:01:39.530Z,0.60
2022-08-19T21:04:06.033Z,0.50
2022-08-19T21:06:32.332Z,0.60
2022-08-19T21:08:58.586Z,0.60
2022-08-19T21:11:24.888Z,0.60
2022-08-19T21:13:51.223Z,0.50
2022-08-19T21:16:17.503Z,0.60
2022-08-19T21:18:44.578Z,0.60
2022-08-19T21:21:10.838Z,0.60
2022-08-19T21:23:37.194Z,0.60
2022-08-19T21:26:03.635Z,0.60
2022-08-19T21:28:36.087Z,0.60
2022-08-19T21:31:04.001Z,0.70
2022-08-19T21:33:31.989Z,0.70
2022-08-19T21:35:58.632Z,0.60
2022-08-19T21:38:24.888Z,0.63
2022-08-19T21:40:51.492Z,0.70
2022-08-19T21:43:17.863Z,0.60
2022-08-19T21:45:45.260Z,0.70
2022-08-19T21:48:14.356Z,0.60
2022-08-19T21:50:44.129Z,0.70
2022-08-19T21:53:17.604Z,0.70
2022-08-19T21:55:44.262Z,0.80
2022-08-19T21:58:11.713Z,0.80
2022-08-19T22:00:38.437Z,0.70
2022-08-19T22:03:05.197Z,0.70
2022-08-19T22:05:33.243Z,0.80
2022-08-19T22:08:00.632Z,0.80
2022-08-19T22:10:27.875Z,0.70
2022-08-19T22:12:56.205Z,0.70
2022-08-19T22:15:23.502Z,0.80
2022-08-19T22:17:50.088Z,0.80
2022-08-19T22:20:18.486Z,0.70
2022-08-19T22:22:47.171Z,0.70
2022-08-19T22:25:29.351Z,0.70
2022-08-19T22:28:00.603Z,0.80
2022-08-19T22:30:27.943Z,0.70
2022-08-19T22:33:01.166Z,0.80
2022-08-19T22:35:31.437Z,0.80
2022-08-19T22:37:58.863Z,0.80
2022-08-19T22:40:25.881Z,0.87
2022-08-19T22:43:00.082Z,0.80
2022-08-19T22:45:26.886Z,0.80
2022-08-19T22:47:53.140Z,0.80
2022-08-19T22:50:19.434Z,0.80
2022-08-19T22:52:51.856Z,0.80
2022-08-19T22:55:18.669Z,0.80
2022-08-19T22:57:44.969Z,0.80
2022-08-19T23:00:13.029Z,0.83
2022-08-19T23:02:51.374Z,0.80
2022-08-19T23:05:21.976Z,0.80
2022-08-19T23:07:48.689Z,0.80
2022-08-19T23:10:26.844Z,0.80
2022-08-19T23:12:55.201Z,0.90
2022-08-19T23:15:24.191Z,0.80
2022-08-19T23:17:50.560Z,0.90
2022-08-19T23:20:17.211Z,0.80
2022-08-19T23:22:44.477Z,0.90
2022-08-19T23:25:13.826Z,0.90
2022-08-19T23:27:58.850Z,0.80
2022-08-19T23:30:27.914Z,1.00
2022-08-19T23:32:58.491Z,0.90
2022-08-19T23:35:25.567Z,0.90
2022-08-19T23:37:52.089Z,0.90
2022-08-19T23:40:21.533Z,0.80
2022-08-19T23:42:49.009Z,0.80
2022-08-19T23:45:16.329Z,0.80
2022-08-19T23:47:50.123Z,0.90
2022-08-19T23:50:17.247Z,0.90
2022-08-19T23:52:45.131Z,0.80
2022-08-19T23:55:11.850Z,0.90
2022-08-19T23:57:38.208Z,0.90
